Time;durP1;ratioP1;P1;durP2;ratioP2;P2;SDS_P1;SDS_P2;PMS_P1;PMS_P2;Temp;Humidity;BMP_temperature;BMP_pressure;BME280_temperature;BME280_humidity;BME280_pressure;Samples;Min_cycle;Max_cycle;Signal;HPM_P1;HPM_P2
2021/10/26 00:02:06;;;;;;;37.58;21.27;;;12.50;99.90;;;;;;5018522;28;36015;-72
2021/10/26 00:04:32;;;;;;;41.58;22.42;;;12.50;99.90;;;;;;5017208;28;37949;-73
2021/10/26 00:06:58;;;;;;;42.25;23.95;;;12.50;99.90;;;;;;5031427;28;40568;-73
2021/10/26 00:09:24;;;;;;;38.30;22.58;;;12.50;99.90;;;;;;5030565;28;39539;-73
2021/10/26 00:11:50;;;;;;;45.03;24.65;;;12.40;99.90;;;;;;5015148;28;39399;-73
2021/10/26 00:14:17;;;;;;;44.38;23.65;;;12.40;99.90;;;;;;5019465;28;37799;-73
2021/10/26 00:16:43;;;;;;;37.78;21.50;;;12.40;99.90;;;;;;5011026;28;40296;-73
2021/10/26 00:19:09;;;;;;;38.75;20.05;;;12.40;99.90;;;;;;5028950;28;38579;-73
2021/10/26 00:21:35;;;;;;;45.20;22.63;;;12.40;99.90;;;;;;5034196;28;38277;-73
2021/10/26 00:24:01;;;;;;;47.97;21.63;;;12.40;99.90;;;;;;5030476;28;37008;-75
2021/10/26 00:26:27;;;;;;;41.92;23.45;;;12.50;99.90;;;;;;5028511;28;38635;-74
2021/10/26 00:28:54;;;;;;;39.90;22.30;;;12.50;99.90;;;;;;5007530;28;38915;-74
2021/10/26 00:31:20;;;;;;;38.17;22.50;;;12.60;99.90;;;;;;5036915;28;38609;-74
2021/10/26 00:33:46;;;;;;;36.17;22.55;;;12.70;99.90;;;;;;5036207;28;36328;-74
2021/10/26 00:36:12;;;;;;;39.53;23.15;;;12.70;99.90;;;;;;5012570;28;39501;-74
2021/10/26 00:38:39;;;;;;;40.80;23.67;;;12.70;99.90;;;;;;5007565;28;38996;-74
2021/10/26 00:41:05;;;;;;;32.75;21.50;;;12.70;99.90;;;;;;5018722;28;37648;-74
2021/10/26 00:43:32;;;;;;;46.63;24.35;;;12.70;99.90;;;;;;5019053;28;39312;-74
2021/10/26 00:45:58;;;;;;;37.08;21.75;;;12.70;99.90;;;;;;5029195;28;39957;-74
2021/10/26 00:48:24;;;;;;;37.88;21.98;;;12.70;99.90;;;;;;5033116;28;39547;-73
2021/10/26 00:50:50;;;;;;;36.70;22.70;;;12.70;99.90;;;;;;5019558;28;40174;-74
2021/10/26 00:53:19;;;;;;;34.88;22.42;;;12.60;99.90;;;;;;5039852;28;36608;-74
2021/10/26 00:55:49;;;;;;;47.45;24.08;;;12.60;99.90;;;;;;5037718;28;38109;-73
2021/10/26 00:58:16;;;;;;;35.42;22.30;;;12.60;99.90;;;;;;5010813;28;39005;-74
2021/10/26 01:00:44;;;;;;;36.78;19.25;;;12.60;99.90;;;;;;5032335;28;38643;-75
2021/10/26 01:03:10;;;;;;;36.10;21.95;;;12.60;99.90;;;;;;5013623;28;38430;-74
2021/10/26 01:05:36;;;;;;;35.60;22.67;;;12.70;99.90;;;;;;5017116;28;39670;-74
2021/10/26 01:08:02;;;;;;;34.70;22.95;;;12.70;99.90;;;;;;5014466;28;40124;-74
2021/10/26 01:10:29;;;;;;;37.53;24.00;;;12.70;99.90;;;;;;5016822;28;39406;-75
2021/10/26 01:12:55;;;;;;;41.80;24.27;;;12.70;99.90;;;;;;5013575;28;39472;-75
2021/10/26 01:15:21;;;;;;;40.65;24.30;;;12.70;99.90;;;;;;5013414;28;38544;-75
2021/10/26 01:17:47;;;;;;;46.08;27.50;;;12.70;99.90;;;;;;5012554;28;40350;-74
2021/10/26 01:20:13;;;;;;;50.10;27.45;;;12.70;99.90;;;;;;5016783;28;39250;-75
2021/10/26 01:22:40;;;;;;;43.33;25.50;;;12.70;99.90;;;;;;5016013;28;37237;-74
2021/10/26 01:25:11;;;;;;;51.00;29.55;;;12.60;99.90;;;;;;5016460;28;38657;-74
2021/10/26 01:27:44;;;;;;;58.08;30.40;;;12.60;99.90;;;;;;5015011;28;37857;-74
2021/10/26 01:30:12;;;;;;;41.17;25.03;;;12.60;99.90;;;;;;5015810;28;39491;-74
2021/10/26 01:32:38;;;;;;;47.90;25.98;;;12.50;99.90;;;;;;5014371;28;37283;-74
2021/10/26 01:35:05;;;;;;;43.85;26.42;;;12.50;99.90;;;;;;5012629;28;39427;-74
2021/10/26 01:37:31;;;;;;;43.47;25.75;;;12.50;99.90;;;;;;5014289;28;48932;-74
2021/10/26 01:39:58;;;;;;;58.90;32.70;;;12.40;99.90;;;;;;5016230;28;38607;-74
2021/10/26 01:42:25;;;;;;;48.87;31.83;;;12.40;99.90;;;;;;5014773;28;37396;-74
2021/10/26 01:44:51;;;;;;;81.03;39.30;;;12.30;99.90;;;;;;5018515;28;40502;-74
2021/10/26 01:47:17;;;;;;;57.43;35.13;;;12.30;99.90;;;;;;5009517;28;38937;-74
2021/10/26 01:49:44;;;;;;;55.53;33.27;;;12.30;99.90;;;;;;5010245;28;38440;-73
2021/10/26 01:52:11;;;;;;;64.68;35.35;;;12.20;99.90;;;;;;5012445;28;37582;-74
2021/10/26 01:54:37;;;;;;;58.23;35.00;;;12.10;99.90;;;;;;5018818;28;37938;-74
2021/10/26 01:57:07;;;;;;;50.13;28.57;;;12.10;99.90;;;;;;5016712;28;39550;-75
2021/10/26 01:59:34;;;;;;;48.95;28.27;;;12.10;99.90;;;;;;5016879;28;38767;-74
2021/10/26 02:02:01;;;;;;;36.37;23.30;;;12.00;99.90;;;;;;5012135;28;37154;-73
2021/10/26 02:04:27;;;;;;;53.40;28.63;;;12.00;99.90;;;;;;5002439;28;40731;-74
2021/10/26 02:06:53;;;;;;;41.87;25.43;;;11.90;99.90;;;;;;5020382;28;39226;-74
2021/10/26 02:09:20;;;;;;;42.83;25.50;;;11.80;99.90;;;;;;5017745;28;40884;-74
2021/10/26 02:11:47;;;;;;;54.87;26.30;;;11.80;99.90;;;;;;5020934;28;39315;-74
2021/10/26 02:14:13;;;;;;;68.27;30.33;;;11.80;99.90;;;;;;5020903;28;38705;-74
2021/10/26 02:16:40;;;;;;;40.50;21.67;;;11.70;99.90;;;;;;5011948;28;38814;-73
2021/10/26 02:19:06;;;;;;;56.90;27.30;;;11.60;99.90;;;;;;5013498;28;38153;-74
2021/10/26 02:21:32;;;;;;;50.13;24.40;;;11.60;99.90;;;;;;5018783;28;37106;-74
2021/10/26 02:23:58;;;;;;;48.93;23.17;;;11.50;99.90;;;;;;5018393;28;39031;-74
2021/10/26 02:26:24;;;;;;;38.73;19.93;;;11.40;99.90;;;;;;5018705;28;39752;-74
2021/10/26 02:28:51;;;;;;;40.77;21.40;;;11.40;99.90;;;;;;5022349;28;38738;-74
2021/10/26 02:31:17;;;;;;;47.30;25.33;;;11.40;99.90;;;;;;5021141;28;38009;-74
2021/10/26 02:33:43;;;;;;;29.50;16.70;;;11.30;99.90;;;;;;5018876;28;38828;-74
2021/10/26 02:36:09;;;;;;;50.07;22.67;;;11.30;99.90;;;;;;5023526;28;38705;-74
2021/10/26 02:38:35;;;;;;;37.13;18.57;;;11.30;99.90;;;;;;5015999;28;39073;-74
2021/10/26 02:41:02;;;;;;;45.40;19.27;;;11.40;99.90;;;;;;5018307;28;37493;-75
2021/10/26 02:43:30;;;;;;;48.40;21.23;;;11.30;99.90;;;;;;5019880;28;39205;-75
2021/10/26 02:45:58;;;;;;;40.37;19.70;;;11.30;99.90;;;;;;5014909;28;38769;-74
2021/10/26 02:48:24;;;;;;;27.23;14.83;;;11.30;99.90;;;;;;5013125;28;37568;-74
2021/10/26 02:50:50;;;;;;;37.93;17.90;;;11.30;99.90;;;;;;5018322;28;39505;-74
2021/10/26 02:53:16;;;;;;;34.00;17.63;;;11.20;99.90;;;;;;5017461;28;37686;-74
2021/10/26 02:55:42;;;;;;;44.53;19.70;;;11.10;99.90;;;;;;5020161;28;39963;-74
2021/10/26 02:58:08;;;;;;;43.67;18.70;;;11.10;99.90;;;;;;5022024;28;39392;-74
2021/10/26 03:00:34;;;;;;;29.37;15.90;;;11.10;99.90;;;;;;5014434;28;37957;-74
2021/10/26 03:03:00;;;;;;;36.20;16.30;;;11.20;99.90;;;;;;5009536;28;40175;-74
2021/10/26 03:05:26;;;;;;;57.70;22.53;;;11.20;99.90;;;;;;5018522;28;47590;-74
2021/10/26 03:07:53;;;;;;;26.97;14.77;;;11.20;99.90;;;;;;5013893;28;40092;-74
2021/10/26 03:10:19;;;;;;;34.10;16.87;;;11.20;99.90;;;;;;5034701;28;37727;-74
2021/10/26 03:12:45;;;;;;;39.17;18.63;;;11.30;99.90;;;;;;5017750;28;38617;-73
2021/10/26 03:15:12;;;;;;;40.57;17.77;;;11.30;99.90;;;;;;5018481;28;38956;-74
2021/10/26 03:17:39;;;;;;;44.33;19.33;;;11.30;99.90;;;;;;5012600;28;38668;-74
2021/10/26 03:20:06;;;;;;;55.20;21.07;;;11.40;99.90;;;;;;5014250;28;37701;-75
2021/10/26 03:22:33;;;;;;;33.17;17.63;;;11.40;99.90;;;;;;5020643;28;38972;-74
2021/10/26 03:24:59;;;;;;;41.33;18.60;;;11.50;99.90;;;;;;5017347;28;40275;-74
2021/10/26 03:27:25;;;;;;;42.97;18.57;;;11.50;99.90;;;;;;5012841;28;39830;-74
2021/10/26 03:29:52;;;;;;;28.33;13.93;;;11.50;99.90;;;;;;5013868;28;39229;-74
2021/10/26 03:32:18;;;;;;;34.77;15.97;;;11.40;99.90;;;;;;5037408;28;38791;-74
2021/10/26 03:34:45;;;;;;;37.13;17.90;;;11.30;99.90;;;;;;5008584;28;37597;-74
2021/10/26 03:37:11;;;;;;;66.33;23.93;;;11.20;99.90;;;;;;5020272;28;38355;-74
2021/10/26 03:39:37;;;;;;;39.30;17.00;;;11.20;99.90;;;;;;5020227;28;38018;-74
2021/10/26 03:42:04;;;;;;;51.17;22.47;;;11.30;99.90;;;;;;5015536;28;39651;-74
2021/10/26 03:44:30;;;;;;;44.23;19.53;;;11.40;99.90;;;;;;5040568;28;39422;-74
2021/10/26 03:46:56;;;;;;;47.70;21.17;;;11.40;99.90;;;;;;5022983;28;40070;-74
2021/10/26 03:49:23;;;;;;;49.93;20.73;;;11.40;99.90;;;;;;5037842;28;36314;-74
2021/10/26 03:51:49;;;;;;;36.80;19.10;;;11.40;99.90;;;;;;5037578;28;38815;-74
2021/10/26 03:54:15;;;;;;;51.70;22.97;;;11.40;99.90;;;;;;5019239;28;39750;-74
2021/10/26 03:56:41;;;;;;;34.30;18.90;;;11.40;99.90;;;;;;5012284;28;39764;-74
2021/10/26 03:59:09;;;;;;;44.47;20.63;;;11.30;99.90;;;;;;5013998;28;36406;-74
2021/10/26 04:01:37;;;;;;;39.63;19.60;;;11.30;99.90;;;;;;5041246;28;39966;-74
2021/10/26 04:04:06;;;;;;;65.33;26.87;;;11.30;99.90;;;;;;5035039;28;38987;-73
2021/10/26 04:06:33;;;;;;;35.37;18.03;;;11.30;99.90;;;;;;5038265;28;37370;-73
2021/10/26 04:09:09;;;;;;;45.43;19.93;;;11.20;99.90;;;;;;5022189;28;36509;-73
2021/10/26 04:11:40;;;;;;;42.57;20.87;;;11.20;99.90;;;;;;5020557;28;47874;-73
2021/10/26 04:14:06;;;;;;;50.40;19.57;;;11.10;99.90;;;;;;5038045;28;39644;-74
2021/10/26 04:16:33;;;;;;;49.83;21.83;;;11.10;99.90;;;;;;5002515;28;38041;-73
2021/10/26 04:18:59;;;;;;;36.60;17.27;;;11.10;99.90;;;;;;5012513;28;37086;-73
2021/10/26 04:21:25;;;;;;;34.70;18.23;;;11.20;99.90;;;;;;5016645;28;38735;-73
2021/10/26 04:23:51;;;;;;;38.63;18.73;;;11.20;99.90;;;;;;5012785;28;40950;-73
2021/10/26 04:26:18;;;;;;;36.40;17.33;;;11.20;99.90;;;;;;5036718;28;37821;-73
2021/10/26 04:28:44;;;;;;;38.50;18.47;;;11.20;99.90;;;;;;5007314;28;36465;-73
2021/10/26 04:31:11;;;;;;;36.10;15.67;;;11.20;99.90;;;;;;5011083;28;39179;-74
2021/10/26 04:33:37;;;;;;;35.90;17.77;;;11.20;99.90;;;;;;5034672;28;38939;-73
2021/10/26 04:36:03;;;;;;;36.70;16.37;;;11.20;99.90;;;;;;5026605;28;38995;-74
2021/10/26 04:38:29;;;;;;;52.30;21.50;;;11.20;99.90;;;;;;5020712;28;38456;-73
2021/10/26 04:40:58;;;;;;;28.37;16.67;;;11.20;99.90;;;;;;5034351;28;38720;-73
2021/10/26 04:43:26;;;;;;;39.27;16.23;;;11.10;99.90;;;;;;5020043;28;38508;-73
2021/10/26 04:45:52;;;;;;;50.10;21.50;;;11.10;99.90;;;;;;5017301;28;37737;-73
2021/10/26 04:48:19;;;;;;;41.90;19.43;;;11.20;99.90;;;;;;5015249;28;38384;-73
2021/10/26 04:50:46;;;;;;;29.83;14.73;;;11.10;99.90;;;;;;5029764;28;40001;-73
2021/10/26 04:53:12;;;;;;;32.47;15.03;;;11.10;99.90;;;;;;5003324;28;42021;-74
2021/10/26 04:55:38;;;;;;;31.57;14.17;;;11.10;99.90;;;;;;5016898;28;38843;-74
2021/10/26 04:58:05;;;;;;;30.60;13.83;;;11.00;99.90;;;;;;5013451;28;38174;-74
2021/10/26 05:00:31;;;;;;;49.70;19.43;;;11.00;99.90;;;;;;5013005;28;38514;-73
2021/10/26 05:02:57;;;;;;;34.83;15.90;;;11.00;99.90;;;;;;5012552;28;39293;-74
2021/10/26 05:05:23;;;;;;;26.73;15.43;;;10.90;99.90;;;;;;5033714;28;38312;-73
2021/10/26 05:07:50;;;;;;;28.23;13.20;;;10.90;99.90;;;;;;5019104;28;38013;-73
2021/10/26 05:10:16;;;;;;;27.93;13.90;;;10.80;99.90;;;;;;5031896;28;39094;-73
2021/10/26 05:12:42;;;;;;;27.43;14.40;;;10.90;99.90;;;;;;5015798;28;41104;-74
2021/10/26 05:15:09;;;;;;;39.50;16.67;;;10.90;99.90;;;;;;5005821;28;37481;-74
2021/10/26 05:17:37;;;;;;;54.10;20.90;;;11.00;99.90;;;;;;5032667;28;36698;-74
2021/10/26 05:20:05;;;;;;;27.27;14.07;;;11.00;99.90;;;;;;5011535;28;39482;-74
2021/10/26 05:22:31;;;;;;;34.40;14.77;;;10.90;99.90;;;;;;4983895;28;47586;-73
2021/10/26 05:24:57;;;;;;;28.07;14.03;;;11.00;99.90;;;;;;5038499;28;38563;-74
2021/10/26 05:27:24;;;;;;;34.57;16.50;;;11.00;99.90;;;;;;5035438;28;37654;-74
2021/10/26 05:29:50;;;;;;;36.00;17.30;;;11.00;99.90;;;;;;5038486;28;38502;-74
2021/10/26 05:32:17;;;;;;;24.60;13.00;;;11.00;99.90;;;;;;5012292;28;40477;-74
2021/10/26 05:34:44;;;;;;;28.40;13.43;;;10.90;99.90;;;;;;5037804;28;39991;-74
2021/10/26 05:37:10;;;;;;;23.77;12.97;;;10.90;99.90;;;;;;5041611;28;37572;-74
2021/10/26 05:39:38;;;;;;;39.77;17.53;;;10.80;99.90;;;;;;5024305;28;39521;-74
2021/10/26 05:42:05;;;;;;;39.63;17.57;;;10.80;99.90;;;;;;5033669;28;38924;-75
2021/10/26 05:44:31;;;;;;;32.43;16.87;;;10.90;99.90;;;;;;5022226;28;39433;-74
2021/10/26 05:46:57;;;;;;;25.60;13.97;;;10.80;99.90;;;;;;5029994;28;37208;-74
2021/10/26 05:49:24;;;;;;;38.67;15.50;;;10.80;99.90;;;;;;5036153;28;38562;-74
2021/10/26 05:51:50;;;;;;;26.03;14.60;;;10.80;99.90;;;;;;5001463;28;40108;-74
2021/10/26 05:54:16;;;;;;;32.43;15.77;;;10.80;99.90;;;;;;5026913;28;38656;-74
2021/10/26 05:56:42;;;;;;;33.10;15.27;;;10.70;99.90;;;;;;5012431;28;38086;-74
2021/10/26 05:59:09;;;;;;;37.13;18.03;;;10.70;99.90;;;;;;5010824;28;39760;-74
2021/10/26 06:01:36;;;;;;;31.43;16.50;;;10.70;99.90;;;;;;5033671;28;40212;-74
2021/10/26 06:04:03;;;;;;;42.73;21.33;;;10.70;99.90;;;;;;5025127;28;39469;-74
2021/10/26 06:06:29;;;;;;;67.87;28.40;;;10.80;99.90;;;;;;5012283;28;36258;-74
2021/10/26 06:08:55;;;;;;;32.53;19.13;;;10.80;99.90;;;;;;5036417;28;39430;-73
2021/10/26 06:11:24;;;;;;;39.77;21.63;;;10.80;99.90;;;;;;5024795;28;39466;-74
2021/10/26 06:14:00;;;;;;;58.37;25.17;;;10.80;99.90;;;;;;5029455;28;38305;-74
2021/10/26 06:16:28;;;;;;;35.57;20.60;;;10.70;99.90;;;;;;5035791;28;48898;-74
2021/10/26 06:18:54;;;;;;;31.70;19.57;;;10.70;99.90;;;;;;5016134;28;39558;-74
2021/10/26 06:21:21;;;;;;;42.23;23.20;;;10.60;99.90;;;;;;5030992;28;38473;-74
2021/10/26 06:23:47;;;;;;;47.60;22.57;;;10.80;99.90;;;;;;5024882;28;40250;-73
2021/10/26 06:26:13;;;;;;;58.73;28.23;;;11.00;99.90;;;;;;5033587;28;37005;-73
2021/10/26 06:28:39;;;;;;;42.47;24.17;;;11.00;99.90;;;;;;5040467;28;38948;-74
2021/10/26 06:31:05;;;;;;;45.30;26.90;;;11.10;99.90;;;;;;5011768;28;40406;-74
2021/10/26 06:33:31;;;;;;;58.27;28.30;;;11.10;99.90;;;;;;5039958;28;38056;-73
2021/10/26 06:35:57;;;;;;;41.20;24.03;;;11.10;99.90;;;;;;5020905;28;38084;-73
2021/10/26 06:38:23;;;;;;;60.47;27.00;;;11.10;99.90;;;;;;5031232;28;38426;-73
2021/10/26 06:40:49;;;;;;;76.13;32.83;;;11.10;99.90;;;;;;5006949;28;38583;-74
2021/10/26 06:43:15;;;;;;;68.00;31.60;;;11.10;99.90;;;;;;5021665;28;39159;-73
2021/10/26 06:45:42;;;;;;;60.03;28.10;;;11.20;99.90;;;;;;5020741;28;36922;-73
2021/10/26 06:48:08;;;;;;;48.20;26.70;;;11.20;99.90;;;;;;5038173;28;38761;-74
2021/10/26 06:50:34;;;;;;;58.53;28.53;;;11.30;99.90;;;;;;5030194;28;38694;-74
2021/10/26 06:53:00;;;;;;;59.30;29.77;;;11.30;99.90;;;;;;5001244;28;37457;-74
2021/10/26 06:55:26;;;;;;;57.50;28.57;;;11.40;99.90;;;;;;5004532;28;39612;-74
2021/10/26 06:57:52;;;;;;;62.33;28.50;;;11.40;99.90;;;;;;5021623;28;40870;-74
2021/10/26 07:00:19;;;;;;;38.97;23.63;;;11.40;99.90;;;;;;5006655;28;39851;-75
2021/10/26 07:02:54;;;;;;;50.80;28.20;;;11.50;99.90;;;;;;5013487;28;39562;-74
2021/10/26 07:05:22;;;;;;;69.03;30.67;;;11.50;99.90;;;;;;5035094;28;37222;-74
2021/10/26 07:07:49;;;;;;;35.93;22.23;;;11.60;99.90;;;;;;5011507;28;38977;-74
2021/10/26 07:10:17;;;;;;;48.80;24.20;;;11.60;99.90;;;;;;5008831;28;40641;-74
2021/10/26 07:12:43;;;;;;;41.87;21.87;;;11.70;99.90;;;;;;5014966;28;39308;-74
2021/10/26 07:15:10;;;;;;;46.37;23.97;;;11.70;99.90;;;;;;5006399;28;38287;-75
2021/10/26 07:17:37;;;;;;;37.93;21.93;;;11.80;99.90;;;;;;5008648;28;39894;-74
2021/10/26 07:20:07;;;;;;;43.37;23.70;;;11.80;99.90;;;;;;5019794;28;39825;-74
2021/10/26 07:22:33;;;;;;;42.43;23.70;;;11.90;99.90;;;;;;5013609;28;47292;-75
2021/10/26 07:25:05;;;;;;;36.50;22.40;;;11.90;99.90;;;;;;5022872;28;38049;-75
2021/10/26 07:27:32;;;;;;;42.88;23.23;;;12.00;99.90;;;;;;5012654;28;48345;-74
2021/10/26 07:29:59;;;;;;;41.70;23.67;;;12.00;99.90;;;;;;5025174;28;40495;-74
2021/10/26 07:32:26;;;;;;;54.53;25.50;;;12.00;99.90;;;;;;5023432;28;39378;-74
2021/10/26 07:34:52;;;;;;;41.30;22.40;;;12.10;99.90;;;;;;5017658;28;39287;-74
2021/10/26 07:37:25;;;;;;;38.60;22.37;;;12.10;99.90;;;;;;5022001;28;40928;-74
2021/10/26 07:39:52;;;;;;;47.00;24.50;;;12.10;99.90;;;;;;5025342;28;39559;-74
2021/10/26 07:42:20;;;;;;;43.27;22.80;;;12.10;99.90;;;;;;5014249;28;39074;-74
2021/10/26 07:44:47;;;;;;;41.30;22.20;;;12.20;99.90;;;;;;5019916;28;37686;-74
2021/10/26 07:47:16;;;;;;;40.93;23.87;;;12.20;99.90;;;;;;5020759;28;39655;-74
2021/10/26 07:49:44;;;;;;;64.87;29.80;;;12.20;99.90;;;;;;5027242;28;37909;-74
2021/10/26 07:52:11;;;;;;;60.28;29.45;;;12.20;99.90;;;;;;5026321;28;37941;-75
2021/10/26 07:54:38;;;;;;;50.30;25.70;;;12.30;99.90;;;;;;5035472;28;37381;-75
2021/10/26 07:57:05;;;;;;;75.65;30.83;;;12.30;99.90;;;;;;5013624;28;39448;-74
2021/10/26 07:59:31;;;;;;;44.23;22.67;;;12.40;99.90;;;;;;5013888;28;38815;-74
2021/10/26 08:01:58;;;;;;;45.47;21.00;;;12.40;99.90;;;;;;5025067;28;38444;-74
2021/10/26 08:04:24;;;;;;;40.60;20.50;;;12.40;99.90;;;;;;5006281;28;41173;-75
2021/10/26 08:06:50;;;;;;;34.90;18.57;;;12.50;99.90;;;;;;5021797;28;37734;-75
2021/10/26 08:09:17;;;;;;;39.67;19.53;;;12.50;99.90;;;;;;5021202;28;39425;-76
2021/10/26 08:11:44;;;;;;;38.80;19.40;;;12.50;99.90;;;;;;5046453;28;40100;-75
2021/10/26 08:14:10;;;;;;;38.87;21.63;;;12.60;99.90;;;;;;5045282;28;37996;-76
2021/10/26 08:16:37;;;;;;;49.93;21.27;;;12.70;99.90;;;;;;5045821;28;38622;-75
2021/10/26 08:19:05;;;;;;;44.40;22.10;;;12.80;99.90;;;;;;5035133;28;38784;-76
2021/10/26 08:21:31;;;;;;;45.60;24.30;;;12.80;99.90;;;;;;5026709;28;38379;-76
2021/10/26 08:23:59;;;;;;;45.00;20.40;;;12.90;99.90;;;;;;5044894;28;37524;-76
2021/10/26 08:26:35;;;;;;;46.20;23.15;;;12.90;99.90;;;;;;5026846;28;38516;-76
2021/10/26 08:29:19;;;;;;;46.45;25.77;;;12.90;99.90;;;;;;5031282;28;38961;-75
2021/10/26 08:34:21;;;;;;;50.80;28.10;;;13.10;99.90;;;;;;5045413;28;38647;-76
2021/10/26 08:36:48;;;;;;;55.33;28.02;;;13.10;99.90;;;;;;5020337;28;39552;-75
2021/10/26 08:39:14;;;;;;;44.63;26.35;;;13.20;99.90;;;;;;5012388;28;39920;-76
2021/10/26 08:41:46;;;;;;;42.10;25.55;;;13.20;99.90;;;;;;5045219;28;38593;-76
2021/10/26 08:44:18;;;;;;;42.65;26.00;;;13.20;99.90;;;;;;5026571;28;38477;-75
2021/10/26 08:46:45;;;;;;;37.87;24.90;;;13.30;99.90;;;;;;5029303;28;38321;-76
2021/10/26 08:49:14;;;;;;;50.05;26.83;;;13.30;99.90;;;;;;5040009;28;39452;-76
2021/10/26 08:51:43;;;;;;;39.30;22.40;;;13.40;99.90;;;;;;5042964;28;38122;-75
2021/10/26 08:54:11;;;;;;;44.65;23.33;;;13.30;99.90;;;;;;5009529;28;36372;-76
2021/10/26 08:56:38;;;;;;;40.63;22.00;;;13.40;99.90;;;;;;5007102;28;37770;-76
2021/10/26 08:59:05;;;;;;;46.22;24.77;;;13.30;99.90;;;;;;5035570;28;38623;-76
2021/10/26 09:01:32;;;;;;;43.75;23.17;;;13.40;99.90;;;;;;5045167;28;40005;-76
2021/10/26 09:04:09;;;;;;;40.15;22.83;;;13.30;99.90;;;;;;5043234;28;37527;-76
2021/10/26 09:06:56;;;;;;;34.83;20.02;;;13.40;99.90;;;;;;5006332;28;47119;-76
2021/10/26 09:09:23;;;;;;;37.60;21.52;;;13.40;99.90;;;;;;5025021;28;38475;-75
2021/10/26 09:17:53;;;;;;;32.55;19.05;;;13.40;99.90;;;;;;5042035;28;49312;-76
2021/10/26 09:20:22;;;;;;;33.15;19.52;;;13.40;99.90;;;;;;5012830;28;38698;-76
2021/10/26 09:22:51;;;;;;;33.67;18.85;;;13.40;99.90;;;;;;5023805;28;39390;-76
2021/10/26 09:25:20;;;;;;;35.58;18.02;;;13.40;99.90;;;;;;5040073;28;38404;-76
2021/10/26 09:27:49;;;;;;;33.80;18.92;;;13.40;99.90;;;;;;5009039;28;38767;-76
2021/10/26 09:30:21;;;;;;;32.55;17.98;;;13.40;99.90;;;;;;5024350;28;39114;-76
2021/10/26 09:32:48;;;;;;;35.40;19.45;;;13.40;99.90;;;;;;5031280;28;40020;-76
2021/10/26 09:35:18;;;;;;;39.25;19.38;;;13.50;99.90;;;;;;5031710;28;37108;-76
2021/10/26 09:37:49;;;;;;;31.52;18.90;;;13.40;99.90;;;;;;5010162;28;39652;-76
2021/10/26 09:40:16;;;;;;;33.70;18.13;;;13.50;99.90;;;;;;5023124;28;40054;-75
2021/10/26 09:42:48;;;;;;;37.50;18.88;;;13.60;99.90;;;;;;5026283;28;39211;-76
2021/10/26 09:45:34;;;;;;;31.50;17.20;;;13.60;99.90;;;;;;5026769;28;37850;-76
2021/10/26 09:48:13;;;;;;;32.95;18.00;;;13.70;99.90;;;;;;5027456;28;39813;-76
2021/10/26 09:50:40;;;;;;;33.03;18.98;;;13.60;99.90;;;;;;5010685;28;47531;-76
2021/10/26 09:53:12;;;;;;;34.63;18.13;;;13.70;99.90;;;;;;5006372;28;41691;-76
2021/10/26 09:55:44;;;;;;;42.22;19.05;;;13.80;99.90;;;;;;5030785;28;37981;-76
2021/10/26 09:58:15;;;;;;;29.83;17.75;;;13.80;99.90;;;;;;5037552;28;38722;-78
2021/10/26 10:00:44;;;;;;;31.45;17.30;;;13.80;99.90;;;;;;5008362;28;38497;-76
2021/10/26 10:03:15;;;;;;;32.17;17.48;;;13.90;99.90;;;;;;5015885;28;38850;-77
2021/10/26 10:05:53;;;;;;;35.35;19.13;;;14.00;99.90;;;;;;5024844;28;38116;-76
2021/10/26 10:08:36;;;;;;;33.10;16.75;;;14.20;99.90;;;;;;5031898;28;38597;-77
2021/10/26 10:11:20;;;;;;;36.28;16.88;;;14.20;99.90;;;;;;5030877;28;38918;-77
2021/10/26 10:13:54;;;;;;;24.13;15.18;;;14.30;99.90;;;;;;5008794;28;38647;-75
2021/10/26 10:16:22;;;;;;;28.38;15.48;;;14.30;99.90;;;;;;5012655;28;38034;-77
2021/10/26 10:18:50;;;;;;;34.60;16.50;;;14.40;99.90;;;;;;5016855;28;38951;-77
2021/10/26 10:21:23;;;;;;;28.45;14.50;;;14.50;99.90;;;;;;5012647;28;39684;-76
2021/10/26 10:23:50;;;;;;;22.17;13.75;;;14.60;99.90;;;;;;5040931;28;38544;-76
2021/10/26 10:26:24;;;;;;;32.22;13.85;;;14.80;99.90;;;;;;5013344;28;38478;-76
2021/10/26 10:28:52;;;;;;;26.45;12.73;;;15.00;99.90;;;;;;5041756;28;39565;-77
2021/10/26 10:31:20;;;;;;;20.48;11.23;;;15.10;99.90;;;;;;5014582;28;40169;-76
2021/10/26 10:33:50;;;;;;;17.70;9.50;;;15.00;99.90;;;;;;5039781;28;37267;-76
2021/10/26 10:36:18;;;;;;;17.73;10.15;;;15.00;99.90;;;;;;5022878;28;36488;-75
2021/10/26 10:38:45;;;;;;;19.65;9.50;;;15.00;99.90;;;;;;5041859;28;38792;-75
2021/10/26 10:41:26;;;;;;;21.33;9.15;;;14.90;99.90;;;;;;5007744;28;39736;-77
2021/10/26 10:43:54;;;;;;;22.42;10.20;;;15.00;99.90;;;;;;5016254;28;37736;-76
2021/10/26 10:46:41;;;;;;;24.17;9.98;;;15.10;99.90;;;;;;5041405;28;38211;-76
2021/10/26 10:49:22;;;;;;;18.67;9.02;;;15.10;99.90;;;;;;5026290;28;39464;-78
2021/10/26 10:51:52;;;;;;;19.38;9.10;;;15.10;99.90;;;;;;5019194;28;38593;-76
2021/10/26 10:54:37;;;;;;;23.70;9.95;;;15.00;99.90;;;;;;5014143;28;39241;-75
2021/10/26 10:57:21;;;;;;;16.48;9.52;;;15.00;99.90;;;;;;5022775;28;37044;-76
2021/10/26 10:59:48;;;;;;;23.35;9.65;;;14.90;99.90;;;;;;5018733;28;41144;-76
2021/10/26 11:02:42;;;;;;;24.63;9.55;;;15.00;99.90;;;;;;5011719;28;39563;-75
2021/10/26 11:05:38;;;;;;;19.80;9.10;;;15.10;99.90;;;;;;5008281;28;39591;-77
2021/10/26 11:08:39;;;;;;;20.02;7.93;;;15.20;99.90;;;;;;5023951;28;39289;-76
2021/10/26 11:11:05;;;;;;;13.32;6.80;;;15.30;99.90;;;;;;5018442;28;38585;-75
2021/10/26 11:13:35;;;;;;;17.90;6.78;;;15.40;99.90;;;;;;5026166;28;39120;-75
2021/10/26 11:16:06;;;;;;;16.90;6.22;;;15.40;99.90;;;;;;5023668;28;38756;-74
2021/10/26 11:18:49;;;;;;;13.70;5.65;;;15.50;99.90;;;;;;5019027;28;47201;-75
2021/10/26 11:21:21;;;;;;;16.35;5.07;;;15.50;99.90;;;;;;5006819;28;40149;-75
2021/10/26 11:23:49;;;;;;;16.02;5.88;;;15.70;99.90;;;;;;5020366;28;39352;-75
2021/10/26 11:26:17;;;;;;;15.10;5.88;;;15.90;99.90;;;;;;5019275;28;38769;-74
2021/10/26 11:28:52;;;;;;;15.65;5.22;;;16.00;99.90;;;;;;5018742;28;37719;-75
2021/10/26 11:31:23;;;;;;;18.40;5.60;;;15.80;99.90;;;;;;5024196;28;39573;-75
2021/10/26 11:34:08;;;;;;;14.30;6.25;;;15.80;99.90;;;;;;5034930;28;39946;-75
2021/10/26 11:36:36;;;;;;;11.80;5.53;;;15.80;99.90;;;;;;5022852;28;47334;-74
2021/10/26 11:39:08;;;;;;;13.38;5.15;;;15.90;99.90;;;;;;5022355;28;38008;-75
2021/10/26 11:41:38;;;;;;;16.67;5.60;;;15.90;99.90;;;;;;5016419;28;38635;-75
2021/10/26 11:44:09;;;;;;;13.52;5.40;;;15.90;99.90;;;;;;5016869;28;40560;-74
2021/10/26 11:46:41;;;;;;;10.70;5.15;;;15.90;99.90;;;;;;5012186;28;38140;-75
2021/10/26 11:49:21;;;;;;;15.00;5.15;;;16.00;99.90;;;;;;5014311;28;38017;-75
2021/10/26 11:51:58;;;;;;;10.95;5.13;;;16.10;99.90;;;;;;5011815;28;39386;-74
2021/10/26 11:54:52;;;;;;;10.65;4.85;;;16.10;99.90;;;;;;5013617;28;39403;-75
2021/10/26 11:57:22;;;;;;;13.63;5.15;;;16.10;99.90;;;;;;5011751;28;39702;-74
2021/10/26 11:59:49;;;;;;;11.65;4.45;;;16.20;99.90;;;;;;5007151;28;38067;-74
2021/10/26 12:02:17;;;;;;;11.07;4.47;;;16.20;99.90;;;;;;5009248;28;38490;-75
2021/10/26 12:04:54;;;;;;;12.32;5.43;;;16.10;99.90;;;;;;5011277;28;39674;-74
2021/10/26 12:07:22;;;;;;;14.40;4.95;;;16.10;99.90;;;;;;5014824;28;40415;-74
2021/10/26 12:09:50;;;;;;;13.18;4.72;;;16.00;99.90;;;;;;5007463;28;38384;-74
2021/10/26 12:12:20;;;;;;;13.25;4.30;;;16.10;99.90;;;;;;5009273;28;20158;-74
2021/10/26 12:14:48;;;;;;;11.68;4.22;;;16.10;99.90;;;;;;5016162;28;39838;-75
2021/10/26 12:17:36;;;;;;;11.68;3.85;;;16.10;99.90;;;;;;5009645;28;38275;-75
2021/10/26 12:20:18;;;;;;;9.05;3.47;;;16.10;99.90;;;;;;5009501;28;37753;-75
2021/10/26 12:22:56;;;;;;;11.10;3.20;;;16.20;99.90;;;;;;5001325;28;48173;-74
2021/10/26 12:25:25;;;;;;;6.50;2.90;;;16.30;99.90;;;;;;5012533;28;39376;-74
2021/10/26 12:27:59;;;;;;;6.13;2.63;;;16.50;99.90;;;;;;5013321;28;38508;-74
2021/10/26 12:30:25;;;;;;;7.20;3.03;;;16.60;99.90;;;;;;5006245;28;38633;-74
2021/10/26 12:33:02;;;;;;;11.27;2.88;;;16.50;99.90;;;;;;5014024;28;38321;-74
2021/10/26 12:35:32;;;;;;;6.45;1.92;;;16.40;99.90;;;;;;5008767;28;47136;-74
2021/10/26 12:38:26;;;;;;;7.43;1.40;;;16.50;99.90;;;;;;5013022;28;39355;-75
2021/10/26 12:41:02;;;;;;;9.20;1.67;;;16.50;99.90;;;;;;5010586;28;48877;-74
2021/10/26 12:43:28;;;;;;;5.28;1.25;;;16.50;99.90;;;;;;5015127;28;48180;-74
2021/10/26 12:45:59;;;;;;;8.55;1.33;;;16.50;99.90;;;;;;5013914;28;39579;-74